Aérodrome :
LOGIN :

S'inscrire | Disclaimer

   EN    FR    IT 

 










Légende :    VFR   VFR Marginal   IFR   IFR Intensif   IFR Très Intensif
Visi : 
Plafond : 
>= 8 km
>= 3000ft
5 à 8 km
1000 à 3000 ft
1500m à 5 km
500 à 1000 ft
800 à 1500m
200 à 500 ft
< 800m
< 200 ft
Symboles :   Orages  Brouillard  Fortes neiges  Fortes précipitations  Vent > 20 kt
SIGMETs :   Divers  Orages  Givrage  Turbulence  Onde Orograph.  Cendres Volcan.






- Altitude de l'aérodrome : 405 ft
- Code IATA : ODH


EGVO - RAF Odiham

DERNIER METAR :
  • 220050Z AUTO 21020G30KT 9999 BKN020/// 09/05 Q1017

METARs EXPIRÉS :
  • 212350Z AUTO 21020G33KT 9999 OVC022/// 09/05 Q1018
  • 212250Z AUTO 22018G30KT 9999 BKN021/// BKN029/// 09/05 Q1020

TAF TAF EGVO
Valide du 21 à 15h jusqu'au 22 à 03h UTC


211320Z 2115/2203 23018G28KT 9999 BKN030
BECMG 2115/2118 BKN020
PROB30
TEMPO 2118/2122 SCT012
PROB40
TEMPO 2119/2203 23024G38KT
TEMPO 2122/2203 5000 -DZ BKN010



MET'MAP, la Météo Aéronautique d'un coup d'oeil ! - Copyright ORBIFLY Décembre 2007 - Disclaimer

ORBIFLY MET'MAP TEAM :

Programmation & Développement : Alexandra Zaïnal
Sur une idée originale de : Baudouin d'Aumeries
Assistance à la programmation : Marc-Olivier Méhu
Soutien technique & logistique : Manuel Goepfert

Contact : metmap@orbifly.com




SOURCES & CREDITS :

   NOAA